createdAt,value
2023-05-19T00:00:28.642Z,4.57
2023-05-19T00:05:31.237Z,4.43
2023-05-19T00:10:33.291Z,4.32
2023-05-19T00:15:35.412Z,4.55
2023-05-19T00:20:38.057Z,4.93
2023-05-19T00:25:39.506Z,4.60
2023-05-19T00:30:40.960Z,4.45
2023-05-19T00:35:42.414Z,4.68
2023-05-19T00:40:43.987Z,4.22
2023-05-19T00:45:46.892Z,3.83
2023-05-19T00:50:50.273Z,4.75
2023-05-19T00:55:51.840Z,4.88
2023-05-19T01:00:55.964Z,4.15
2023-05-19T01:06:01.610Z,4.25
2023-05-19T01:11:03.887Z,4.10
2023-05-19T01:16:13.113Z,4.50
2023-05-19T01:21:31.451Z,4.30
2023-05-19T01:27:00.669Z,4.77
2023-05-19T01:32:04.868Z,4.55
2023-05-19T01:37:07.976Z,4.57
2023-05-19T01:42:09.675Z,4.80
2023-05-19T01:47:11.605Z,4.50
2023-05-19T01:52:13.182Z,4.53
2023-05-19T01:57:43.230Z,4.90
2023-05-19T02:02:56.717Z,4.65
2023-05-19T02:08:06.304Z,5.18
2023-05-19T02:13:11.268Z,5.30
2023-05-19T02:18:17.946Z,4.90
2023-05-19T02:23:19.403Z,4.63
2023-05-19T02:28:20.947Z,4.75
2023-05-19T02:33:24.699Z,5.10
2023-05-19T02:38:26.807Z,4.63
2023-05-19T02:43:30.608Z,4.53
2023-05-19T02:48:32.070Z,4.93
2023-05-19T02:53:33.589Z,4.47
2023-05-19T02:58:35.136Z,4.40
2023-05-19T03:03:36.798Z,4.82
2023-05-19T03:08:40.751Z,4.78
2023-05-19T03:13:43.690Z,4.82
2023-05-19T03:18:45.948Z,4.45
2023-05-19T03:23:47.518Z,5.05
2023-05-19T03:28:49.022Z,4.40
2023-05-19T03:33:50.723Z,5.13
2023-05-19T03:38:52.227Z,5.05
2023-05-19T03:43:53.723Z,4.70
2023-05-19T03:48:55.453Z,4.75
2023-05-19T03:53:57.196Z,5.22
2023-05-19T03:58:59.429Z,5.63
2023-05-19T04:04:00.947Z,5.18
2023-05-19T04:09:04.523Z,6.10
2023-05-19T04:14:06.595Z,5.90
2023-05-19T04:19:08.185Z,5.70
2023-05-19T04:24:09.777Z,5.68
2023-05-19T04:29:13.850Z,5.57
2023-05-19T04:34:15.304Z,4.53
2023-05-19T04:39:16.813Z,5.00
2023-05-19T04:44:19.192Z,5.43
2023-05-19T04:49:20.777Z,4.93
2023-05-19T04:54:22.259Z,4.88
2023-05-19T04:59:23.718Z,4.72
2023-05-19T05:04:25.970Z,4.50
2023-05-19T05:09:27.442Z,5.25
2023-05-19T05:14:29.308Z,4.35
2023-05-19T05:19:31.481Z,3.97
2023-05-19T05:24:33.279Z,3.85
2023-05-19T05:29:34.789Z,4.15
2023-05-19T05:34:38.088Z,4.22
2023-05-19T05:39:39.543Z,4.10
2023-05-19T05:44:41.106Z,3.70
2023-05-19T05:49:43.922Z,3.90
2023-05-19T05:54:46.331Z,4.38
2023-05-19T05:59:47.828Z,4.10
2023-05-19T06:04:49.356Z,4.15
2023-05-19T06:09:50.790Z,4.63
2023-05-19T06:14:52.361Z,4.15
2023-05-19T06:19:54.347Z,4.28
2023-05-19T06:24:55.916Z,4.35
2023-05-19T06:29:57.430Z,5.00
2023-05-19T06:34:58.941Z,4.47
2023-05-19T06:40:00.474Z,4.90
2023-05-19T06:45:02.079Z,4.28
2023-05-19T06:50:03.831Z,4.88
2023-05-19T06:55:05.973Z,4.80
2023-05-19T07:00:13.349Z,4.30
2023-05-19T07:05:16.106Z,5.07
2023-05-19T07:10:17.949Z,4.60
2023-05-19T07:15:19.501Z,4.53
2023-05-19T07:20:20.991Z,4.25
2023-05-19T07:25:22.499Z,4.72
2023-05-19T07:30:24.021Z,3.90
2023-05-19T07:35:26.301Z,4.10
2023-05-19T07:40:27.749Z,3.58
2023-05-19T07:45:29.421Z,4.10
2023-05-19T07:50:31.052Z,3.88
2023-05-19T07:55:32.601Z,3.35
2023-05-19T08:00:34.313Z,3.65
2023-05-19T08:05:36.405Z,3.28
2023-05-19T08:10:37.884Z,3.10
2023-05-19T08:15:39.476Z,3.42
2023-05-19T08:20:41.029Z,3.28
2023-05-19T08:25:42.524Z,3.60
2023-05-19T08:30:43.972Z,3.03
2023-05-19T08:35:45.508Z,3.30
2023-05-19T08:40:48.406Z,2.88
2023-05-19T08:45:50.377Z,2.80
2023-05-19T08:51:17.860Z,2.55
2023-05-19T08:56:25.150Z,2.67
2023-05-19T09:01:28.903Z,2.60
2023-05-19T09:06:33.353Z,3.40
2023-05-19T09:11:37.521Z,3.38
2023-05-19T09:16:39.340Z,3.40
2023-05-19T09:21:41.395Z,3.03
2023-05-19T09:26:43.055Z,3.10
2023-05-19T09:31:52.605Z,3.33
2023-05-19T09:36:54.366Z,3.42
2023-05-19T09:41:58.505Z,3.40
2023-05-19T09:47:00.078Z,3.55
2023-05-19T09:52:05.864Z,4.40
2023-05-19T09:57:08.579Z,4.00
2023-05-19T10:02:21.299Z,4.13
2023-05-19T10:07:24.163Z,3.83
2023-05-19T10:12:26.794Z,3.92
2023-05-19T10:17:28.878Z,4.32
2023-05-19T10:22:30.513Z,4.63
2023-05-19T10:27:34.996Z,5.40
2023-05-19T10:32:39.383Z,5.32
2023-05-19T10:37:51.192Z,4.80
2023-05-19T10:43:37.166Z,5.65
2023-05-19T10:48:38.692Z,6.10
2023-05-19T10:53:46.441Z,6.07
2023-05-19T10:58:52.145Z,5.65
2023-05-19T11:03:57.644Z,5.63
2023-05-19T11:09:20.937Z,6.30
2023-05-19T11:14:27.596Z,5.43
2023-05-19T11:19:31.281Z,5.05
2023-05-19T11:24:40.623Z,4.90
2023-05-19T11:29:42.616Z,5.47
2023-05-19T11:34:45.834Z,4.63
2023-05-19T11:39:47.839Z,4.85
2023-05-19T11:44:49.580Z,4.93
2023-05-19T11:49:54.911Z,5.60
2023-05-19T11:55:01.560Z,5.55
2023-05-19T12:00:08.994Z,6.25
2023-05-19T12:05:18.704Z,5.20
2023-05-19T12:10:27.896Z,6.80
2023-05-19T12:15:29.401Z,6.88
2023-05-19T12:20:36.039Z,6.47
2023-05-19T12:25:38.485Z,7.03
2023-05-19T12:30:40.113Z,8.13
2023-05-19T12:35:42.404Z,7.28
2023-05-19T12:40:44.228Z,8.70
2023-05-19T12:45:45.908Z,8.05
2023-05-19T12:50:47.440Z,8.60
2023-05-19T12:55:52.843Z,9.20
2023-05-19T13:00:59.819Z,10.90
2023-05-19T13:06:01.447Z,10.65
2023-05-19T13:11:02.939Z,10.90
2023-05-19T13:16:04.779Z,11.00
2023-05-19T13:21:06.307Z,11.90
2023-05-19T13:26:07.839Z,11.38
2023-05-19T13:31:09.342Z,11.48
2023-05-19T13:36:10.868Z,11.77
2023-05-19T13:41:13.789Z,11.55
2023-05-19T13:46:16.010Z,10.85
2023-05-19T13:51:17.536Z,10.75
2023-05-19T13:56:19.028Z,12.02
2023-05-19T14:01:20.536Z,12.43
2023-05-19T14:06:22.135Z,12.48
2023-05-19T14:11:23.690Z,12.38
2023-05-19T14:16:26.483Z,12.00
2023-05-19T14:21:27.967Z,10.85
2023-05-19T14:26:29.558Z,9.43
2023-05-19T14:31:32.631Z,11.32
2023-05-19T14:36:35.169Z,12.90
2023-05-19T14:41:36.740Z,10.95
2023-05-19T14:46:38.258Z,13.70
2023-05-19T14:51:39.874Z,12.43
2023-05-19T14:56:41.339Z,13.35
2023-05-19T15:01:42.955Z,13.40
2023-05-19T15:06:46.349Z,14.77
2023-05-19T15:11:49.583Z,14.15
2023-05-19T15:16:51.083Z,14.52
2023-05-19T15:21:52.549Z,14.07
2023-05-19T15:26:55.376Z,14.88
2023-05-19T15:31:58.113Z,14.32
2023-05-19T15:36:59.638Z,12.57
2023-05-19T15:42:01.286Z,15.43
2023-05-19T15:47:03.161Z,14.35
2023-05-19T15:52:04.895Z,14.05
2023-05-19T15:57:06.381Z,12.77
2023-05-19T16:02:08.425Z,13.85
2023-05-19T16:07:09.922Z,14.38
2023-05-19T16:12:11.409Z,14.52
2023-05-19T16:17:13.869Z,12.98
2023-05-19T16:22:15.840Z,12.27
2023-05-19T16:27:17.345Z,12.82
2023-05-19T16:32:18.943Z,12.32
2023-05-19T16:37:20.607Z,12.38
2023-05-19T16:42:22.699Z,11.15
2023-05-19T16:47:24.177Z,11.75
2023-05-19T16:52:25.734Z,12.35
2023-05-19T16:57:27.298Z,10.85
2023-05-19T17:02:28.940Z,11.73
2023-05-19T17:07:30.493Z,12.50
2023-05-19T17:12:31.989Z,10.00
2023-05-19T17:17:33.482Z,12.88
2023-05-19T17:22:34.996Z,11.80
2023-05-19T17:27:36.488Z,10.32
2023-05-19T17:32:39.431Z,11.85
2023-05-19T17:37:41.772Z,10.80
2023-05-19T17:42:43.414Z,10.32
2023-05-19T17:47:44.945Z,12.20
2023-05-19T17:52:46.753Z,12.23
2023-05-19T17:57:49.056Z,9.38
2023-05-19T18:02:51.103Z,12.93
2023-05-19T18:07:53.937Z,13.10
2023-05-19T18:12:55.462Z,13.88
2023-05-19T18:17:57.137Z,13.15
2023-05-19T18:22:58.727Z,14.15
2023-05-19T18:28:00.352Z,12.85
2023-05-19T18:33:03.747Z,14.38
2023-05-19T18:38:05.692Z,14.38
2023-05-19T18:43:07.184Z,13.35
2023-05-19T18:48:08.910Z,13.98
2023-05-19T18:53:11.798Z,13.13
2023-05-19T18:58:13.248Z,13.65
2023-05-19T19:03:15.363Z,14.15
2023-05-19T19:08:17.403Z,14.48
2023-05-19T19:13:19.058Z,13.60
2023-05-19T19:18:20.550Z,12.68
2023-05-19T19:23:22.023Z,12.73
2023-05-19T19:28:23.938Z,13.05
2023-05-19T19:33:25.472Z,13.98
2023-05-19T19:38:26.944Z,13.90
2023-05-19T19:43:28.423Z,13.73
2023-05-19T19:48:30.464Z,13.43
2023-05-19T19:53:31.996Z,14.25
2023-05-19T19:58:33.486Z,14.68
2023-05-19T20:03:35.592Z,14.00
2023-05-19T20:08:37.504Z,13.00
2023-05-19T20:13:38.990Z,15.43
2023-05-19T20:18:40.629Z,15.43
2023-05-19T20:23:42.192Z,15.45
2023-05-19T20:28:43.754Z,15.05
2023-05-19T20:33:45.217Z,15.98
2023-05-19T20:38:47.931Z,15.63
2023-05-19T20:43:49.513Z,15.48
2023-05-19T20:48:51.209Z,16.58
2023-05-19T20:53:53.145Z,15.90
2023-05-19T20:58:54.652Z,15.57
2023-05-19T21:03:57.222Z,14.40
2023-05-19T21:08:58.723Z,16.13
2023-05-19T21:14:06.219Z,16.75
2023-05-19T21:19:07.878Z,16.88
2023-05-19T21:24:09.929Z,16.83
2023-05-19T21:29:11.413Z,17.13
2023-05-19T21:34:12.911Z,16.15
2023-05-19T21:39:14.415Z,17.58
2023-05-19T21:44:15.868Z,17.92
2023-05-19T21:49:17.346Z,17.67
2023-05-19T21:54:18.785Z,17.52
2023-05-19T21:59:23.175Z,17.35
2023-05-19T22:04:24.671Z,16.77
2023-05-19T22:09:26.655Z,17.20
2023-05-19T22:14:28.095Z,16.88
2023-05-19T22:19:29.746Z,17.98
2023-05-19T22:24:31.337Z,18.08
2023-05-19T22:29:32.953Z,17.35
2023-05-19T22:34:34.435Z,18.27
2023-05-19T22:39:36.354Z,18.38
2023-05-19T22:44:37.829Z,17.40
2023-05-19T22:49:42.837Z,18.70
2023-05-19T22:54:44.403Z,19.60
2023-05-19T22:59:45.988Z,19.75
2023-05-19T23:04:47.422Z,17.95
2023-05-19T23:09:48.967Z,14.70
2023-05-19T23:14:50.953Z,18.15
2023-05-19T23:19:52.514Z,17.27
2023-05-19T23:24:53.983Z,17.60
2023-05-19T23:29:55.790Z,16.40
2023-05-19T23:35:00.432Z,17.33
2023-05-19T23:40:01.926Z,16.70
2023-05-19T23:45:03.997Z,16.02
2023-05-19T23:50:05.772Z,15.55
2023-05-19T23:55:08.064Z,15.43
